createdAt,value
2019-04-28T00:00:21.479Z,19.45
2019-04-28T00:02:50.776Z,19.50
2019-04-28T00:05:18.912Z,19.68
2019-04-28T00:07:46.681Z,19.74
2019-04-28T00:10:14.814Z,19.58
2019-04-28T00:12:42.673Z,19.25
2019-04-28T00:15:10.889Z,19.51
2019-04-28T00:17:38.779Z,19.43
2019-04-28T00:20:10.683Z,19.55
2019-04-28T00:22:46.031Z,19.52
2019-04-28T00:25:21.576Z,19.40
2019-04-28T00:27:49.535Z,19.24
2019-04-28T00:30:17.289Z,19.10
2019-04-28T00:32:45.089Z,19.23
2019-04-28T00:35:12.834Z,19.33
2019-04-28T00:37:41.776Z,19.37
2019-04-28T00:40:11.142Z,19.36
2019-04-28T00:42:39.025Z,19.19
2019-04-28T00:45:07.419Z,19.20
2019-04-28T00:47:35.161Z,19.19
2019-04-28T00:50:04.408Z,19.28
2019-04-28T00:52:32.274Z,19.13
2019-04-28T00:55:01.145Z,18.93
2019-04-28T00:57:30.900Z,18.36
2019-04-28T00:59:59.046Z,18.63
2019-04-28T01:02:41.483Z,18.79
2019-04-28T01:05:11.154Z,18.83
2019-04-28T01:07:38.792Z,18.85
2019-04-28T01:10:06.540Z,18.97
2019-04-28T01:12:34.483Z,18.77
2019-04-28T01:15:04.823Z,18.49
2019-04-28T01:17:49.955Z,18.83
2019-04-28T01:20:19.671Z,19.05
2019-04-28T01:22:49.575Z,18.77
2019-04-28T01:25:17.265Z,18.82
2019-04-28T01:27:51.307Z,19.12
2019-04-28T01:30:53.787Z,19.09
2019-04-28T01:33:29.482Z,19.13
2019-04-28T01:35:57.400Z,19.01
2019-04-28T01:38:25.143Z,18.75
2019-04-28T01:40:52.878Z,18.79
2019-04-28T01:43:20.660Z,18.96
2019-04-28T01:45:50.216Z,18.96
2019-04-28T01:48:19.875Z,18.97
2019-04-28T01:50:47.723Z,18.87
2019-04-28T01:53:15.574Z,18.88
2019-04-28T01:55:43.396Z,18.71
2019-04-28T01:58:11.224Z,18.59
2019-04-28T02:00:40.536Z,18.79
2019-04-28T02:03:10.259Z,18.91
2019-04-28T02:05:37.853Z,18.98
2019-04-28T02:08:05.609Z,18.85
2019-04-28T02:10:33.392Z,18.78
2019-04-28T02:13:01.224Z,18.81
2019-04-28T02:15:30.156Z,18.76
2019-04-28T02:18:00.121Z,19.04
2019-04-28T02:20:30.001Z,18.82
2019-04-28T02:23:16.664Z,18.46
2019-04-28T02:25:44.515Z,18.63
2019-04-28T02:28:12.371Z,18.37
2019-04-28T02:30:48.870Z,18.68
2019-04-28T02:33:11.136Z,18.76
2019-04-28T02:35:41.745Z,18.78
2019-04-28T02:38:11.373Z,18.62
2019-04-28T02:40:40.621Z,18.61
2019-04-28T02:43:07.731Z,18.82
2019-04-28T02:45:35.583Z,18.68
2019-04-28T02:48:05.017Z,18.80
2019-04-28T02:50:54.843Z,18.74
2019-04-28T02:53:26.084Z,18.56
2019-04-28T02:55:53.957Z,18.61
2019-04-28T02:58:22.561Z,18.68
2019-04-28T03:01:02.575Z,18.51
2019-04-28T03:03:21.106Z,18.47
2019-04-28T03:05:51.208Z,18.67
2019-04-28T03:08:21.205Z,18.60
2019-04-28T03:10:50.743Z,18.69
2019-04-28T03:13:20.641Z,18.60
2019-04-28T03:15:47.511Z,18.67
2019-04-28T03:18:15.277Z,18.32
2019-04-28T03:20:43.026Z,18.35
2019-04-28T03:23:12.385Z,18.35
2019-04-28T03:25:50.491Z,18.53
2019-04-28T03:28:41.376Z,18.42
2019-04-28T03:31:51.023Z,18.29
2019-04-28T03:33:56.320Z,18.16
2019-04-28T03:36:24.281Z,18.22
2019-04-28T03:38:53.204Z,18.36
2019-04-28T03:41:21.291Z,18.35
2019-04-28T03:43:51.274Z,18.33
2019-04-28T03:46:22.404Z,18.27
2019-04-28T03:48:50.909Z,18.42
2019-04-28T03:51:21.192Z,18.33
2019-04-28T03:53:50.692Z,18.08
2019-04-28T03:56:20.718Z,18.13
2019-04-28T03:58:50.276Z,18.00
2019-04-28T04:01:20.448Z,18.17
2019-04-28T04:03:46.944Z,18.10
2019-04-28T04:06:14.772Z,17.84
2019-04-28T04:08:42.516Z,17.88
2019-04-28T04:11:31.219Z,18.06
2019-04-28T04:14:11.620Z,18.17
2019-04-28T04:17:00.152Z,18.10
2019-04-28T04:19:32.183Z,18.10
2019-04-28T04:22:00.402Z,17.99
2019-04-28T04:24:30.640Z,18.06
2019-04-28T04:26:57.783Z,18.10
2019-04-28T04:29:25.530Z,18.15
2019-04-28T04:32:09.419Z,18.25
2019-04-28T04:34:22.756Z,17.98
2019-04-28T04:36:50.966Z,18.10
2019-04-28T04:39:20.610Z,17.84
2019-04-28T04:41:50.417Z,17.76
2019-04-28T04:44:17.815Z,18.16
2019-04-28T04:46:45.595Z,18.01
2019-04-28T04:49:13.536Z,17.93
2019-04-28T04:51:43.877Z,18.10
2019-04-28T04:54:11.003Z,18.19
2019-04-28T04:56:40.168Z,18.06
2019-04-28T04:59:10.100Z,18.22
2019-04-28T05:01:50.091Z,18.12
2019-04-28T05:04:22.608Z,18.20
2019-04-28T05:06:50.384Z,17.95
2019-04-28T05:09:19.923Z,18.09
2019-04-28T05:11:49.792Z,18.15
2019-04-28T05:14:17.400Z,18.08
2019-04-28T05:16:45.144Z,18.03
2019-04-28T05:19:12.924Z,18.02
2019-04-28T05:21:40.739Z,18.15
2019-04-28T05:24:16.343Z,18.08
2019-04-28T05:26:47.536Z,18.09
2019-04-28T05:29:14.568Z,17.94
2019-04-28T05:31:42.348Z,18.07
2019-04-28T05:34:11.622Z,18.19
2019-04-28T05:36:44.402Z,18.16
2019-04-28T05:39:10.466Z,17.96
2019-04-28T05:41:39.962Z,18.01
2019-04-28T05:44:09.934Z,18.12
2019-04-28T05:46:37.732Z,17.95
2019-04-28T05:49:19.457Z,17.83
2019-04-28T05:51:48.137Z,17.84
2019-04-28T05:54:33.354Z,17.75
2019-04-28T05:57:20.544Z,17.82
2019-04-28T06:00:03.341Z,17.85
2019-04-28T06:02:33.362Z,17.82
2019-04-28T06:05:01.149Z,17.92
2019-04-28T06:07:37.564Z,17.87
2019-04-28T06:10:05.372Z,17.91
2019-04-28T06:12:33.347Z,17.81
2019-04-28T06:15:24.819Z,18.18
2019-04-28T06:17:52.794Z,18.35
2019-04-28T06:20:20.788Z,18.52
2019-04-28T06:22:48.569Z,18.46
2019-04-28T06:25:16.328Z,18.55
2019-04-28T06:28:23.780Z,18.55
2019-04-28T06:30:48.628Z,18.61
2019-04-28T06:33:16.452Z,18.57
2019-04-28T06:35:44.577Z,18.62
2019-04-28T06:38:13.466Z,18.48
2019-04-28T06:40:41.222Z,18.64
2019-04-28T06:43:09.029Z,18.80
2019-04-28T06:45:36.816Z,18.69
2019-04-28T06:48:04.584Z,18.59
2019-04-28T06:50:32.315Z,18.68
2019-04-28T06:53:02.783Z,18.66
2019-04-28T06:55:29.593Z,18.70
2019-04-28T06:57:57.509Z,18.67
2019-04-28T07:00:25.262Z,18.71
2019-04-28T07:02:53.039Z,18.89
2019-04-28T07:05:20.804Z,18.94
2019-04-28T07:07:48.557Z,18.84
2019-04-28T07:10:16.403Z,18.78
2019-04-28T07:12:44.204Z,18.78
2019-04-28T07:15:11.956Z,18.72
2019-04-28T07:17:39.714Z,18.90
2019-04-28T07:20:20.550Z,19.14
2019-04-28T07:22:48.296Z,18.82
2019-04-28T07:25:16.230Z,18.75
2019-04-28T07:27:44.013Z,18.74
2019-04-28T07:30:11.765Z,18.96
2019-04-28T07:32:39.541Z,18.93
2019-04-28T07:35:07.296Z,18.91
2019-04-28T07:37:35.090Z,19.00
2019-04-28T07:40:03.234Z,19.13
2019-04-28T07:42:31.134Z,19.21
2019-04-28T07:44:59.173Z,19.16
2019-04-28T07:47:27.083Z,19.20
2019-04-28T07:49:55.034Z,19.33
2019-04-28T07:52:38.128Z,19.26
2019-04-28T07:55:07.072Z,19.42
2019-04-28T07:57:37.591Z,19.33
2019-04-28T08:00:06.032Z,19.30
2019-04-28T08:02:35.663Z,19.15
2019-04-28T08:05:03.436Z,19.38
2019-04-28T08:07:31.225Z,19.54
2019-04-28T08:09:59.126Z,19.42
2019-04-28T08:12:26.894Z,19.44
2019-04-28T08:14:54.799Z,19.35
2019-04-28T08:17:22.845Z,19.27
2019-04-28T08:19:50.744Z,19.17
2019-04-28T08:22:18.846Z,19.31
2019-04-28T08:24:46.651Z,19.23
2019-04-28T08:27:22.668Z,19.28
2019-04-28T08:29:58.053Z,19.47
2019-04-28T08:32:38.264Z,19.31
2019-04-28T08:35:06.173Z,19.44
2019-04-28T08:37:34.415Z,19.55
2019-04-28T08:40:03.081Z,19.57
2019-04-28T08:42:30.910Z,19.57
2019-04-28T08:44:58.677Z,19.64
2019-04-28T08:47:26.543Z,19.61
2019-04-28T08:49:54.485Z,19.73
2019-04-28T08:52:22.376Z,19.53
2019-04-28T08:54:56.079Z,19.60
2019-04-28T08:57:21.934Z,19.42
2019-04-28T08:59:50.399Z,19.59
2019-04-28T09:02:18.201Z,19.61
2019-04-28T09:04:46.191Z,19.51
2019-04-28T09:07:14.323Z,19.73
2019-04-28T09:09:42.353Z,19.74
2019-04-28T09:12:10.273Z,19.63
2019-04-28T09:14:38.133Z,19.85
2019-04-28T09:17:05.879Z,19.75
2019-04-28T09:19:33.702Z,19.83
2019-04-28T09:22:01.584Z,19.65
2019-04-28T09:24:29.369Z,19.63
2019-04-28T09:26:57.108Z,19.60
2019-04-28T09:29:24.977Z,19.22
2019-04-28T09:31:52.717Z,19.66
2019-04-28T09:34:28.047Z,19.60
2019-04-28T09:36:51.339Z,19.67
2019-04-28T09:39:23.416Z,19.82
2019-04-28T09:42:08.668Z,19.76
2019-04-28T09:44:36.527Z,19.68
2019-04-28T09:47:04.292Z,19.70
2019-04-28T09:49:32.167Z,19.75
2019-04-28T09:52:00.246Z,19.65
2019-04-28T09:54:27.991Z,19.83
2019-04-28T09:56:57.100Z,19.83
2019-04-28T09:59:25.706Z,19.88
2019-04-28T10:02:12.195Z,19.83
2019-04-28T10:04:41.823Z,19.88
2019-04-28T10:07:09.849Z,19.94
2019-04-28T10:09:37.609Z,19.34
2019-04-28T10:12:05.661Z,19.94
2019-04-28T10:14:33.485Z,20.01
2019-04-28T10:17:01.291Z,19.91
2019-04-28T10:19:33.198Z,20.10
2019-04-28T10:22:01.043Z,20.06
2019-04-28T10:24:28.870Z,19.99
2019-04-28T10:27:01.843Z,20.15
2019-04-28T10:29:34.166Z,20.00
2019-04-28T10:32:02.316Z,19.97
2019-04-28T10:34:30.302Z,19.99
2019-04-28T10:36:59.166Z,20.15
2019-04-28T10:39:49.636Z,20.05
2019-04-28T10:42:18.415Z,20.07
2019-04-28T10:44:56.263Z,20.02
2019-04-28T10:47:30.250Z,20.07
2019-04-28T10:50:03.414Z,19.98
2019-04-28T10:52:36.154Z,20.15
2019-04-28T10:55:12.804Z,20.11
2019-04-28T10:57:45.982Z,20.10
2019-04-28T11:00:15.449Z,20.17
2019-04-28T11:02:44.296Z,20.16
2019-04-28T11:05:19.331Z,20.07
2019-04-28T11:07:53.197Z,19.82
2019-04-28T11:10:21.877Z,20.08
2019-04-28T11:12:49.923Z,20.19
2019-04-28T11:15:22.681Z,20.04
2019-04-28T11:17:50.530Z,20.11
2019-04-28T11:20:18.374Z,20.02
2019-04-28T11:22:46.185Z,19.89
2019-04-28T11:25:14.188Z,19.96
2019-04-28T11:27:42.116Z,20.00
2019-04-28T11:30:10.026Z,20.12
2019-04-28T11:32:39.889Z,20.23
2019-04-28T11:35:29.234Z,20.13
2019-04-28T11:37:57.915Z,20.19
2019-04-28T11:40:26.614Z,20.22
2019-04-28T11:42:54.662Z,20.15
2019-04-28T11:45:22.829Z,20.19
2019-04-28T11:47:50.746Z,20.11
2019-04-28T11:50:18.757Z,20.43
2019-04-28T11:52:46.786Z,20.20
2019-04-28T11:55:14.701Z,20.14
2019-04-28T11:57:43.114Z,20.18
2019-04-28T12:00:25.411Z,19.70
2019-04-28T12:02:54.553Z,20.36
2019-04-28T12:05:34.437Z,19.83
2019-04-28T12:07:56.752Z,20.39
2019-04-28T12:10:28.216Z,20.41
2019-04-28T12:13:21.423Z,20.41
2019-04-28T12:16:13.542Z,20.45
2019-04-28T12:19:05.755Z,20.37
2019-04-28T12:21:33.582Z,20.42
2019-04-28T12:24:01.412Z,20.53
2019-04-28T12:26:29.288Z,20.53
2019-04-28T12:28:57.191Z,20.47
2019-04-28T12:31:25.078Z,20.42
2019-04-28T12:33:52.844Z,20.44
2019-04-28T12:36:20.705Z,20.50
2019-04-28T12:38:50.272Z,20.56
2019-04-28T12:41:19.550Z,20.53
2019-04-28T12:43:47.498Z,20.68
2019-04-28T12:46:15.507Z,20.67
2019-04-28T12:48:43.606Z,20.56
2019-04-28T12:51:11.825Z,20.68
2019-04-28T12:53:39.849Z,20.58
2019-04-28T12:56:07.968Z,20.66
2019-04-28T12:58:35.772Z,20.69
2019-04-28T13:01:25.851Z,20.79
2019-04-28T13:04:11.765Z,20.28
2019-04-28T13:06:39.845Z,20.57
2019-04-28T13:09:07.784Z,20.74
2019-04-28T13:11:35.641Z,20.69
2019-04-28T13:14:03.558Z,20.76
2019-04-28T13:16:31.318Z,20.67
2019-04-28T13:18:59.142Z,20.76
2019-04-28T13:21:26.959Z,20.90
2019-04-28T13:23:54.818Z,20.94
2019-04-28T13:26:22.572Z,20.92
2019-04-28T13:28:50.345Z,20.83
2019-04-28T13:31:18.104Z,20.82
2019-04-28T13:33:56.013Z,20.87
2019-04-28T13:36:15.596Z,20.87
2019-04-28T13:38:43.892Z,20.45
2019-04-28T13:41:18.442Z,20.83
2019-04-28T13:44:26.453Z,20.81
2019-04-28T13:46:54.400Z,20.89
2019-04-28T13:49:24.028Z,20.96
2019-04-28T13:51:52.063Z,21.02
2019-04-28T13:54:23.872Z,20.88
2019-04-28T13:56:53.557Z,20.90
2019-04-28T13:59:23.345Z,20.93
2019-04-28T14:02:13.581Z,20.86
2019-04-28T14:04:47.145Z,20.95
2019-04-28T14:07:15.183Z,20.85
2019-04-28T14:09:43.080Z,20.85
2019-04-28T14:12:10.946Z,20.97
2019-04-28T14:14:38.813Z,20.91
2019-04-28T14:17:06.608Z,20.88
2019-04-28T14:19:34.562Z,20.88
2019-04-28T14:22:02.790Z,20.89
2019-04-28T14:24:31.117Z,20.93
2019-04-28T14:26:58.996Z,21.05
2019-04-28T14:29:28.184Z,21.12
2019-04-28T14:31:56.363Z,21.22
2019-04-28T14:34:24.276Z,21.23
2019-04-28T14:36:53.228Z,21.11
2019-04-28T14:39:21.056Z,21.02
2019-04-28T14:41:48.909Z,21.00
2019-04-28T14:44:17.773Z,21.17
2019-04-28T14:46:45.781Z,21.30
2019-04-28T14:49:13.692Z,20.83
2019-04-28T14:51:41.644Z,21.15
2019-04-28T14:54:09.528Z,21.06
2019-04-28T14:56:37.673Z,21.32
2019-04-28T14:59:07.301Z,21.45
2019-04-28T15:02:09.375Z,21.06
2019-04-28T15:04:55.387Z,21.14
2019-04-28T15:07:40.899Z,21.07
2019-04-28T15:10:17.181Z,21.14
2019-04-28T15:12:45.025Z,21.56
2019-04-28T15:15:12.899Z,21.28
2019-04-28T15:17:40.769Z,21.10
2019-04-28T15:20:08.537Z,21.16
2019-04-28T15:22:36.441Z,21.28
2019-04-28T15:25:04.403Z,21.43
2019-04-28T15:27:32.231Z,21.66
2019-04-28T15:30:00.118Z,21.56
2019-04-28T15:32:28.405Z,21.70
2019-04-28T15:34:56.295Z,21.39
2019-04-28T15:37:24.228Z,21.46
2019-04-28T15:39:54.860Z,21.18
2019-04-28T15:42:22.636Z,21.52
2019-04-28T15:44:50.409Z,21.43
2019-04-28T15:47:19.078Z,21.81
2019-04-28T15:49:47.170Z,21.57
2019-04-28T15:52:15.533Z,21.61
2019-04-28T15:54:43.479Z,21.58
2019-04-28T15:57:11.458Z,21.47
2019-04-28T15:59:39.404Z,21.50
2019-04-28T16:02:07.345Z,21.26
2019-04-28T16:04:35.353Z,21.66
2019-04-28T16:07:03.313Z,21.76
2019-04-28T16:09:31.253Z,21.72
2019-04-28T16:11:59.038Z,21.54
2019-04-28T16:14:26.870Z,21.60
2019-04-28T16:16:54.811Z,21.50
2019-04-28T16:19:47.143Z,21.91
2019-04-28T16:22:15.166Z,21.66
2019-04-28T16:25:03.508Z,21.77
2019-04-28T16:27:31.489Z,21.11
2019-04-28T16:29:59.314Z,21.88
2019-04-28T16:32:28.335Z,21.77
2019-04-28T16:34:56.230Z,21.68
2019-04-28T16:37:49.358Z,21.76
2019-04-28T16:40:17.249Z,21.82
2019-04-28T16:42:45.874Z,21.91
2019-04-28T16:45:15.082Z,21.91
2019-04-28T16:47:42.979Z,21.77
2019-04-28T16:50:10.907Z,22.19
2019-04-28T16:52:38.832Z,21.91
2019-04-28T16:58:33.193Z,22.18
2019-04-28T17:01:22.165Z,21.86
2019-04-28T17:04:05.896Z,21.79
2019-04-28T17:06:33.638Z,21.74
2019-04-28T17:09:01.490Z,22.14
2019-04-28T17:11:29.356Z,22.00
2019-04-28T17:13:57.252Z,21.73
2019-04-28T17:16:25.004Z,21.45
2019-04-28T17:18:52.779Z,21.74
2019-04-28T17:21:20.675Z,21.43
2019-04-28T17:23:48.612Z,21.97
2019-04-28T17:26:16.657Z,21.67
2019-04-28T17:28:52.585Z,21.89
2019-04-28T17:31:20.602Z,21.64
2019-04-28T17:33:48.404Z,21.88
2019-04-28T17:36:16.343Z,21.93
2019-04-28T17:38:44.317Z,21.92
2019-04-28T17:41:12.197Z,21.76
2019-04-28T17:43:40.262Z,21.81
2019-04-28T17:46:08.288Z,21.90
2019-04-28T17:48:38.947Z,21.82
2019-04-28T17:51:06.771Z,21.97
2019-04-28T17:53:35.061Z,21.76
2019-04-28T17:56:03.342Z,21.71
2019-04-28T17:58:31.153Z,21.76
2019-04-28T18:01:24.080Z,21.71
2019-04-28T18:04:09.984Z,21.66
2019-04-28T18:06:39.070Z,21.84
2019-04-28T18:09:06.967Z,21.60
2019-04-28T18:11:34.734Z,21.59
2019-04-28T18:14:04.227Z,21.13
2019-04-28T18:16:49.784Z,21.53
2019-04-28T18:19:34.106Z,21.62
2019-04-28T18:22:01.886Z,21.89
2019-04-28T18:24:29.725Z,21.59
2019-04-28T18:26:57.499Z,21.57
2019-04-28T18:29:25.404Z,21.51
2019-04-28T18:32:19.963Z,21.62
2019-04-28T18:52:26.499Z,19.66
2019-04-28T18:54:54.215Z,21.02
2019-04-28T18:57:32.680Z,20.84
2019-04-28T18:59:55.100Z,20.91
2019-04-28T19:02:32.830Z,20.93
2019-04-28T19:05:00.554Z,20.78
2019-04-28T19:07:55.744Z,20.94
2019-04-28T19:10:46.439Z,21.05
2019-04-28T19:13:11.744Z,21.07
2019-04-28T19:15:57.323Z,21.05
2019-04-28T19:18:30.341Z,21.09
2019-04-28T19:20:58.171Z,21.16
2019-04-28T19:23:25.925Z,21.06
2019-04-28T19:25:55.090Z,21.17
2019-04-28T19:29:02.430Z,21.05
2019-04-28T19:31:38.742Z,20.95
2019-04-28T19:34:06.522Z,20.83
2019-04-28T19:36:34.355Z,20.84
2019-04-28T19:39:03.686Z,20.69
2019-04-28T19:41:31.585Z,20.36
2019-04-28T19:43:59.399Z,20.34
2019-04-28T19:46:27.142Z,20.48
2019-04-28T19:49:01.756Z,20.40
2019-04-28T19:51:31.994Z,20.16
2019-04-28T19:53:59.455Z,20.06
2019-04-28T19:56:35.135Z,19.88
2019-04-28T19:59:10.475Z,20.18
2019-04-28T20:01:38.321Z,20.27
2019-04-28T20:04:06.126Z,20.43
2019-04-28T20:06:33.838Z,20.46
2019-04-28T20:09:01.578Z,20.31
2019-04-28T20:11:29.342Z,20.32
2019-04-28T20:13:57.076Z,20.00
2019-04-28T20:16:36.355Z,20.29
2019-04-28T20:19:01.423Z,20.43
2019-04-28T20:21:29.241Z,20.45
2019-04-28T20:23:57.009Z,20.32
2019-04-28T20:26:24.763Z,20.22
2019-04-28T20:28:52.504Z,20.20
2019-04-28T20:31:20.415Z,20.26
2019-04-28T20:33:48.238Z,20.39
2019-04-28T20:36:21.467Z,20.33
2019-04-28T20:38:51.249Z,20.30
2019-04-28T20:41:24.204Z,20.29
2019-04-28T20:43:52.815Z,20.22
2019-04-28T20:46:20.618Z,20.23
2019-04-28T20:48:48.392Z,20.24
2019-04-28T20:51:16.127Z,20.26
2019-04-28T20:53:45.035Z,20.14
2019-04-28T20:56:12.745Z,20.14
2019-04-28T20:58:40.598Z,20.23
2019-04-28T21:01:08.427Z,20.26
2019-04-28T21:03:38.520Z,19.67
2019-04-28T21:06:05.667Z,20.21
2019-04-28T21:08:33.495Z,20.11
2019-04-28T21:11:01.303Z,19.91
2019-04-28T21:13:29.007Z,20.32
2019-04-28T21:15:56.728Z,20.27
2019-04-28T21:18:24.759Z,19.52
2019-04-28T21:20:52.602Z,20.05
2019-04-28T21:23:20.791Z,20.04
2019-04-28T21:25:48.691Z,19.99
2019-04-28T21:28:16.479Z,20.03
2019-04-28T21:30:44.281Z,19.99
2019-04-28T21:33:30.003Z,19.98
2019-04-28T21:35:57.778Z,20.03
2019-04-28T21:38:25.500Z,19.90
2019-04-28T21:40:53.303Z,19.85
2019-04-28T21:43:32.808Z,19.58
2019-04-28T21:46:28.022Z,19.64
2019-04-28T21:49:09.874Z,19.64
2019-04-28T21:51:37.607Z,19.71
2019-04-28T21:54:05.343Z,19.71
2019-04-28T21:56:33.134Z,19.75
2019-04-28T21:59:00.880Z,19.75
2019-04-28T22:01:29.034Z,19.81
2019-04-28T22:03:56.851Z,19.74
2019-04-28T22:06:24.571Z,19.70
2019-04-28T22:08:52.379Z,19.61
2019-04-28T22:11:20.118Z,19.52
2019-04-28T22:13:48.024Z,19.78
2019-04-28T22:16:15.784Z,19.59
2019-04-28T22:18:44.789Z,18.89
2019-04-28T22:21:21.015Z,18.94
2019-04-28T22:24:03.940Z,19.01
2019-04-28T22:26:48.451Z,18.73
2019-04-28T22:29:16.187Z,18.78
2019-04-28T22:31:44.211Z,18.89
2019-04-28T22:34:12.264Z,18.97
2019-04-28T22:36:39.994Z,18.49
2019-04-28T22:39:07.723Z,18.64
2019-04-28T22:41:43.231Z,18.64
2019-04-28T22:44:07.875Z,18.34
2019-04-28T22:46:35.602Z,18.52
2019-04-28T22:49:05.120Z,18.15
2019-04-28T22:51:32.849Z,18.36
2019-04-28T22:54:03.250Z,18.62
2019-04-28T22:56:39.938Z,18.40
2019-04-28T22:59:20.258Z,18.47
2019-04-28T23:01:52.230Z,18.35
2019-04-28T23:04:42.109Z,18.37
2019-04-28T23:07:09.924Z,17.66
2019-04-28T23:09:37.630Z,17.81
2019-04-28T23:12:05.355Z,18.24
2019-04-28T23:14:33.093Z,17.69
2019-04-28T23:17:00.952Z,17.90
2019-04-28T23:19:31.176Z,18.05
2019-04-28T23:22:08.992Z,18.42
2019-04-28T23:24:36.746Z,18.20
2019-04-28T23:27:04.482Z,17.48
2019-04-28T23:29:33.780Z,18.02
2019-04-28T23:32:09.339Z,18.01
2019-04-28T23:34:37.064Z,17.33
2019-04-28T23:37:05.236Z,17.94
2019-04-28T23:39:33.063Z,17.39
2019-04-28T23:42:12.727Z,17.26
2019-04-28T23:44:40.447Z,17.39
2019-04-28T23:47:08.162Z,16.65
2019-04-28T23:49:36.203Z,16.74
2019-04-28T23:52:35.493Z,17.05
2019-04-28T23:55:05.361Z,17.15
2019-04-28T23:57:33.087Z,17.69
